createdAt,value
2018-08-31T00:01:30.584Z,2.03
2018-08-31T00:06:12.337Z,3.37
2018-08-31T00:10:56.121Z,2.83
2018-08-31T00:13:25.551Z,3.03
2018-08-31T00:15:54.777Z,2.80
2018-08-31T00:18:24.344Z,2.30
2018-08-31T00:20:53.595Z,4.30
2018-08-31T00:23:43.182Z,1.97
2018-08-31T00:26:23.575Z,3.23
2018-08-31T00:29:40.995Z,4.00
2018-08-31T00:32:21.787Z,4.17
2018-08-31T00:35:05.832Z,3.97
2018-08-31T00:39:24.320Z,4.10
2018-08-31T00:42:11.086Z,2.63
2018-08-31T00:45:48.334Z,3.67
2018-08-31T00:48:18.123Z,3.43
2018-08-31T00:50:47.824Z,4.73
2018-08-31T00:53:17.309Z,5.30
2018-08-31T00:55:46.604Z,8.33
2018-08-31T00:58:17.023Z,4.40
2018-08-31T01:00:47.171Z,4.47
2018-08-31T01:03:16.619Z,2.17
2018-08-31T01:05:46.189Z,6.93
2018-08-31T01:08:15.540Z,4.03
2018-08-31T01:10:44.837Z,4.20
2018-08-31T01:13:14.195Z,4.80
2018-08-31T01:15:43.426Z,6.03
2018-08-31T01:18:13.200Z,7.63
2018-08-31T01:20:43.001Z,3.70
2018-08-31T01:23:12.522Z,7.77
2018-08-31T01:25:41.955Z,6.50
2018-08-31T01:28:11.437Z,2.93
2018-08-31T01:30:40.762Z,6.00
2018-08-31T01:33:10.059Z,3.77
2018-08-31T01:35:39.439Z,4.40
2018-08-31T01:38:08.893Z,4.80
2018-08-31T01:40:38.398Z,3.80
2018-08-31T01:43:08.023Z,5.50
2018-08-31T01:45:37.632Z,12.00
2018-08-31T01:48:07.242Z,4.57
2018-08-31T01:50:36.610Z,6.77
2018-08-31T01:53:06.032Z,7.40
2018-08-31T01:55:35.536Z,3.60
2018-08-31T01:58:04.882Z,5.47
2018-08-31T02:00:34.349Z,3.23
2018-08-31T02:03:03.824Z,5.97
2018-08-31T02:05:33.456Z,4.63
2018-08-31T02:08:02.832Z,4.57
2018-08-31T02:10:32.409Z,3.10
2018-08-31T02:13:01.768Z,11.90
2018-08-31T02:15:31.095Z,6.40
2018-08-31T02:18:02.637Z,3.90
2018-08-31T02:20:31.956Z,2.60
2018-08-31T02:23:01.262Z,3.03
2018-08-31T02:25:30.651Z,7.27
2018-08-31T02:28:00.049Z,3.50
2018-08-31T02:30:29.947Z,3.23
2018-08-31T02:32:59.465Z,3.80
2018-08-31T02:35:29.091Z,7.50
2018-08-31T02:37:58.813Z,4.27
2018-08-31T02:40:28.417Z,9.30
2018-08-31T02:42:58.406Z,9.43
2018-08-31T02:45:28.352Z,3.20
2018-08-31T02:47:57.760Z,3.87
2018-08-31T02:50:27.251Z,4.83
2018-08-31T02:52:56.605Z,6.10
2018-08-31T02:55:26.099Z,4.50
2018-08-31T02:57:55.496Z,4.07
2018-08-31T03:00:26.168Z,9.10
2018-08-31T03:02:55.570Z,3.50
2018-08-31T03:05:25.025Z,11.73
2018-08-31T03:07:54.336Z,11.77
2018-08-31T03:10:23.672Z,4.87
2018-08-31T03:12:52.984Z,6.03
2018-08-31T03:15:22.185Z,4.73
2018-08-31T03:17:51.609Z,7.70
2018-08-31T03:20:21.118Z,4.83
2018-08-31T03:22:50.384Z,4.43
2018-08-31T03:25:19.742Z,8.60
2018-08-31T03:27:49.159Z,3.13
2018-08-31T03:30:18.554Z,11.03
2018-08-31T03:32:47.929Z,4.93
2018-08-31T03:35:18.158Z,5.10
2018-08-31T03:37:47.828Z,5.23
2018-08-31T03:40:17.332Z,7.17
2018-08-31T03:42:46.879Z,9.03
2018-08-31T03:45:16.536Z,8.63
2018-08-31T03:47:45.909Z,5.07
2018-08-31T03:50:15.146Z,4.83
2018-08-31T03:52:45.423Z,4.77
2018-08-31T03:55:14.928Z,6.10
2018-08-31T03:57:44.443Z,5.00
2018-08-31T04:00:13.887Z,5.43
2018-08-31T04:02:43.269Z,7.10
2018-08-31T04:05:12.681Z,7.67
2018-08-31T04:07:42.243Z,5.23
2018-08-31T04:10:11.600Z,4.60
2018-08-31T04:12:41.017Z,5.20
2018-08-31T04:15:10.918Z,6.80
2018-08-31T04:17:40.408Z,4.70
2018-08-31T04:20:09.945Z,4.70
2018-08-31T04:22:39.457Z,5.30
2018-08-31T04:25:09.291Z,4.43
2018-08-31T04:27:38.981Z,8.10
2018-08-31T04:30:08.820Z,7.17
2018-08-31T04:32:38.368Z,5.40
2018-08-31T04:35:07.681Z,5.53
2018-08-31T04:37:37.136Z,4.83
2018-08-31T04:40:07.144Z,6.90
2018-08-31T04:42:37.665Z,4.60
2018-08-31T04:45:07.322Z,5.30
2018-08-31T04:47:36.784Z,6.93
2018-08-31T04:50:06.362Z,5.00
2018-08-31T04:52:36.564Z,3.97
2018-08-31T04:55:05.980Z,7.80
2018-08-31T04:57:35.155Z,5.80
2018-08-31T05:00:04.732Z,6.60
2018-08-31T05:02:37.574Z,3.20
2018-08-31T05:05:07.860Z,3.60
2018-08-31T05:07:37.340Z,3.93
2018-08-31T05:10:07.325Z,8.93
2018-08-31T05:12:36.661Z,4.20
2018-08-31T05:15:06.317Z,6.60
2018-08-31T05:17:35.714Z,8.87
2018-08-31T05:20:05.277Z,8.40
2018-08-31T05:22:34.935Z,5.93
2018-08-31T05:25:04.541Z,4.00
2018-08-31T05:27:33.901Z,4.43
2018-08-31T05:30:03.594Z,8.33
2018-08-31T05:32:33.313Z,7.63
2018-08-31T05:35:03.824Z,4.27
2018-08-31T05:37:33.197Z,6.13
2018-08-31T05:40:02.613Z,3.20
2018-08-31T05:42:36.236Z,3.40
2018-08-31T05:45:05.713Z,4.70
2018-08-31T05:47:35.134Z,5.50
2018-08-31T05:50:04.632Z,4.20
2018-08-31T05:52:36.708Z,7.63
2018-08-31T05:55:06.204Z,4.17
2018-08-31T05:57:36.542Z,5.50
2018-08-31T06:00:06.181Z,7.00
2018-08-31T06:02:36.126Z,5.60
2018-08-31T06:05:05.691Z,6.10
2018-08-31T06:07:35.112Z,6.90
2018-08-31T06:10:04.816Z,5.77
2018-08-31T06:12:34.711Z,5.60
2018-08-31T06:15:04.183Z,6.97
2018-08-31T06:17:33.733Z,7.03
2018-08-31T06:20:03.147Z,5.63
2018-08-31T06:22:34.392Z,6.47
2018-08-31T06:25:03.840Z,6.03
2018-08-31T06:27:33.733Z,5.87
2018-08-31T06:30:03.502Z,9.53
2018-08-31T06:32:36.405Z,3.00
2018-08-31T06:35:06.774Z,9.13
2018-08-31T06:37:36.982Z,5.27
2018-08-31T06:40:06.345Z,3.83
2018-08-31T06:42:36.572Z,4.93
2018-08-31T06:45:05.892Z,9.00
2018-08-31T06:47:35.629Z,6.20
2018-08-31T06:50:05.453Z,6.77
2018-08-31T06:52:35.417Z,4.90
2018-08-31T06:55:04.813Z,6.10
2018-08-31T06:57:34.747Z,15.17
2018-08-31T07:00:04.594Z,5.20
2018-08-31T07:02:37.527Z,7.53
2018-08-31T07:05:07.400Z,14.30
2018-08-31T07:07:37.374Z,6.80
2018-08-31T07:10:07.199Z,12.67
2018-08-31T07:12:37.048Z,8.90
2018-08-31T07:15:13.521Z,8.63
2018-08-31T07:17:43.074Z,8.77
2018-08-31T07:20:12.512Z,6.70
2018-08-31T07:22:42.062Z,10.13
2018-08-31T07:25:11.884Z,7.13
2018-08-31T07:27:41.310Z,8.90
2018-08-31T07:30:11.263Z,9.93
2018-08-31T07:32:40.789Z,9.43
2018-08-31T07:35:10.245Z,10.60
2018-08-31T07:37:40.571Z,7.83
2018-08-31T07:40:10.007Z,10.23
2018-08-31T07:42:39.474Z,8.67
2018-08-31T07:45:09.640Z,13.10
2018-08-31T07:47:40.589Z,8.97
2018-08-31T07:50:10.316Z,7.87
2018-08-31T07:52:40.627Z,10.00
2018-08-31T07:55:10.006Z,9.67
2018-08-31T07:57:39.621Z,8.73
2018-08-31T08:00:09.292Z,10.87
2018-08-31T08:02:39.920Z,8.77
2018-08-31T08:05:09.293Z,6.47
2018-08-31T08:07:38.653Z,10.17
2018-08-31T08:10:07.999Z,7.60
2018-08-31T08:12:37.907Z,10.27
2018-08-31T08:15:07.290Z,6.33
2018-08-31T08:17:36.710Z,7.70
2018-08-31T08:20:06.419Z,4.10
2018-08-31T08:22:36.506Z,4.90
2018-08-31T08:25:07.604Z,9.30
2018-08-31T08:27:46.200Z,12.83
2018-08-31T08:30:16.013Z,6.33
2018-08-31T08:32:45.505Z,8.10
2018-08-31T08:35:14.959Z,4.97
2018-08-31T08:37:56.207Z,8.20
2018-08-31T08:40:25.803Z,4.37
2018-08-31T08:42:55.215Z,4.73
2018-08-31T08:45:24.775Z,4.20
2018-08-31T08:47:54.975Z,2.70
2018-08-31T08:50:24.456Z,3.30
2018-08-31T08:52:53.901Z,6.50
2018-08-31T08:55:23.421Z,3.10
2018-08-31T08:57:52.789Z,4.70
2018-08-31T09:00:23.398Z,3.40
2018-08-31T09:02:59.812Z,3.27
2018-08-31T09:05:29.315Z,5.47
2018-08-31T09:07:59.633Z,11.77
2018-08-31T09:10:29.292Z,4.37
2018-08-31T09:12:58.806Z,3.30
2018-08-31T09:15:28.621Z,2.10
2018-08-31T09:17:58.449Z,3.83
2018-08-31T09:20:27.758Z,3.33
2018-08-31T09:22:57.277Z,3.50
2018-08-31T09:25:27.484Z,4.60
2018-08-31T09:27:57.562Z,5.40
2018-08-31T09:30:32.859Z,6.40
2018-08-31T09:33:02.266Z,7.53
2018-08-31T09:35:31.599Z,5.83
2018-08-31T09:38:01.041Z,7.37
2018-08-31T09:40:30.461Z,6.80
2018-08-31T09:42:59.686Z,4.37
2018-08-31T09:45:29.059Z,4.87
2018-08-31T09:47:58.561Z,5.03
2018-08-31T09:50:28.125Z,5.63
2018-08-31T09:52:57.625Z,3.10
2018-08-31T09:55:27.333Z,4.87
2018-08-31T09:57:57.695Z,3.73
2018-08-31T10:00:32.131Z,7.67
2018-08-31T10:03:07.147Z,3.93
2018-08-31T10:05:36.598Z,6.43
2018-08-31T10:08:06.561Z,3.00
2018-08-31T10:10:36.145Z,4.13
2018-08-31T10:13:05.990Z,3.17
2018-08-31T10:15:35.408Z,4.23
2018-08-31T10:18:05.076Z,4.13
2018-08-31T10:20:34.425Z,4.73
2018-08-31T10:23:04.241Z,4.77
2018-08-31T10:25:35.699Z,2.63
2018-08-31T10:28:06.502Z,2.93
2018-08-31T10:30:37.457Z,4.13
2018-08-31T10:33:07.243Z,3.40
2018-08-31T10:35:37.410Z,5.47
2018-08-31T10:38:07.948Z,3.77
2018-08-31T10:40:37.552Z,5.10
2018-08-31T10:43:06.868Z,5.40
2018-08-31T10:45:36.763Z,3.10
2018-08-31T10:48:06.886Z,3.27
2018-08-31T10:50:36.711Z,4.20
2018-08-31T10:53:06.083Z,6.93
2018-08-31T10:55:35.636Z,5.20
2018-08-31T10:58:05.144Z,3.83
2018-08-31T11:00:34.563Z,4.23
2018-08-31T11:03:03.942Z,6.60
2018-08-31T11:05:33.414Z,8.27
2018-08-31T11:08:02.937Z,6.40
2018-08-31T11:10:32.292Z,7.60
2018-08-31T11:13:01.957Z,6.13
2018-08-31T11:15:31.593Z,6.90
2018-08-31T11:18:00.757Z,6.17
2018-08-31T11:20:30.227Z,4.00
2018-08-31T11:22:59.989Z,7.97
2018-08-31T11:25:29.897Z,4.80
2018-08-31T11:27:59.301Z,6.30
2018-08-31T11:30:29.998Z,5.80
2018-08-31T11:32:59.804Z,4.90
2018-08-31T11:35:29.410Z,7.53
2018-08-31T11:38:00.191Z,9.47
2018-08-31T11:40:30.297Z,4.43
2018-08-31T11:43:06.685Z,4.27
2018-08-31T11:45:42.928Z,6.20
2018-08-31T11:48:12.530Z,6.23
2018-08-31T11:50:41.910Z,4.67
2018-08-31T11:53:11.292Z,5.70
2018-08-31T11:55:40.754Z,6.07
2018-08-31T11:58:10.051Z,5.07
2018-08-31T12:00:39.386Z,7.20
2018-08-31T12:03:09.344Z,10.17
2018-08-31T12:05:38.805Z,6.70
2018-08-31T12:08:08.385Z,6.37
2018-08-31T12:10:37.866Z,6.73
2018-08-31T12:13:07.570Z,6.87
2018-08-31T12:15:37.652Z,9.67
2018-08-31T12:18:07.202Z,7.70
2018-08-31T12:20:36.619Z,10.00
2018-08-31T12:23:06.132Z,7.30
2018-08-31T12:25:35.515Z,9.33
2018-08-31T12:28:04.916Z,7.83
2018-08-31T12:30:34.388Z,7.93
2018-08-31T12:33:04.284Z,9.20
2018-08-31T12:35:33.752Z,8.57
2018-08-31T12:38:03.046Z,9.30
2018-08-31T12:40:32.392Z,8.93
2018-08-31T12:43:01.720Z,11.37
2018-08-31T12:45:31.245Z,11.47
2018-08-31T12:48:00.922Z,11.83
2018-08-31T12:50:30.217Z,6.47
2018-08-31T12:52:59.754Z,10.30
2018-08-31T12:55:29.283Z,11.60
2018-08-31T12:58:00.014Z,6.07
2018-08-31T13:00:31.283Z,7.30
2018-08-31T13:03:00.640Z,19.03
2018-08-31T13:05:30.171Z,8.73
2018-08-31T13:07:59.521Z,13.03
2018-08-31T13:10:28.890Z,13.80
2018-08-31T13:12:58.895Z,8.80
2018-08-31T13:15:28.433Z,8.50
2018-08-31T13:17:57.851Z,7.03
2018-08-31T13:20:27.396Z,18.90
2018-08-31T13:22:56.772Z,13.07
2018-08-31T13:25:26.114Z,8.40
2018-08-31T13:27:55.602Z,8.20
2018-08-31T13:30:25.039Z,7.10
2018-08-31T13:32:54.550Z,8.70
2018-08-31T13:35:23.868Z,9.70
2018-08-31T13:37:53.606Z,7.50
2018-08-31T13:40:23.153Z,7.03
2018-08-31T13:42:52.607Z,9.33
2018-08-31T13:45:22.085Z,9.57
2018-08-31T13:47:51.386Z,12.43
2018-08-31T13:50:20.669Z,8.37
2018-08-31T13:52:50.040Z,9.67
2018-08-31T13:55:20.139Z,8.93
2018-08-31T13:57:49.698Z,11.37
2018-08-31T14:00:19.357Z,6.93
2018-08-31T14:02:49.001Z,10.37
2018-08-31T14:05:18.353Z,9.70
2018-08-31T14:07:47.877Z,10.27
2018-08-31T14:10:17.314Z,11.43
2018-08-31T14:12:49.129Z,16.00
2018-08-31T14:15:18.586Z,12.20
2018-08-31T14:17:49.129Z,12.93
2018-08-31T14:20:18.571Z,13.20
2018-08-31T14:22:48.034Z,14.47
2018-08-31T14:25:17.382Z,11.20
2018-08-31T14:27:46.900Z,15.43
2018-08-31T14:30:16.199Z,13.40
2018-08-31T14:32:45.657Z,12.30
2018-08-31T14:35:15.022Z,12.30
2018-08-31T14:37:44.304Z,15.37
2018-08-31T14:40:14.184Z,13.47
2018-08-31T14:42:44.011Z,13.93
2018-08-31T14:45:13.352Z,15.80
2018-08-31T14:47:42.935Z,11.50
2018-08-31T14:50:12.267Z,15.00
2018-08-31T14:52:42.369Z,13.50
2018-08-31T14:55:11.731Z,11.80
2018-08-31T14:57:42.192Z,18.53
2018-08-31T15:00:11.862Z,14.80
2018-08-31T15:02:41.491Z,13.73
2018-08-31T15:05:11.107Z,12.77
2018-08-31T15:07:40.463Z,12.63
2018-08-31T15:10:13.178Z,13.70
2018-08-31T15:12:42.909Z,13.10
2018-08-31T15:15:12.524Z,12.83
2018-08-31T15:17:41.937Z,24.63
2018-08-31T15:20:11.443Z,10.90
2018-08-31T15:22:40.949Z,14.90
2018-08-31T15:25:10.650Z,13.40
2018-08-31T15:27:40.137Z,13.80
2018-08-31T15:30:09.920Z,15.33
2018-08-31T15:32:39.374Z,13.53
2018-08-31T15:35:08.700Z,10.93
2018-08-31T15:37:38.000Z,12.57
2018-08-31T15:40:09.950Z,12.30
2018-08-31T15:42:39.735Z,14.10
2018-08-31T15:45:10.218Z,15.13
2018-08-31T15:47:39.577Z,18.63
2018-08-31T15:50:09.274Z,12.87
2018-08-31T15:52:38.682Z,12.63
2018-08-31T15:55:09.307Z,15.43
2018-08-31T15:57:40.055Z,13.30
2018-08-31T16:00:10.701Z,14.03
2018-08-31T16:02:42.409Z,14.90
2018-08-31T16:05:12.507Z,23.60
2018-08-31T16:07:42.241Z,14.67
2018-08-31T16:10:11.787Z,15.17
2018-08-31T16:12:45.373Z,14.43
2018-08-31T16:15:14.986Z,13.03
2018-08-31T16:17:44.546Z,13.20
2018-08-31T16:20:13.790Z,13.63
2018-08-31T16:22:43.009Z,13.23
2018-08-31T16:25:16.274Z,14.67
2018-08-31T16:27:50.671Z,13.97
2018-08-31T16:30:20.131Z,17.73
2018-08-31T16:32:59.386Z,16.73
2018-08-31T16:35:28.879Z,10.90
2018-08-31T16:37:58.335Z,15.77
2018-08-31T16:40:28.359Z,14.07
2018-08-31T16:42:57.777Z,13.50
2018-08-31T16:45:27.329Z,13.70
2018-08-31T16:47:59.373Z,14.50
2018-08-31T16:50:28.776Z,16.77
2018-08-31T16:53:00.052Z,14.00
2018-08-31T16:55:30.002Z,15.53
2018-08-31T16:57:59.748Z,15.73
2018-08-31T17:00:29.449Z,11.30
2018-08-31T17:02:59.122Z,15.20
2018-08-31T17:05:28.659Z,14.10
2018-08-31T17:07:58.186Z,12.33
2018-08-31T17:10:27.805Z,15.37
2018-08-31T17:12:57.469Z,16.60
2018-08-31T17:15:26.798Z,12.60
2018-08-31T17:17:56.216Z,10.93
2018-08-31T17:20:26.047Z,13.33
2018-08-31T17:22:55.310Z,13.13
2018-08-31T17:25:24.423Z,12.37
2018-08-31T17:30:05.146Z,14.97
2018-08-31T17:32:39.916Z,12.57
2018-08-31T17:35:15.572Z,15.50
2018-08-31T17:37:45.878Z,10.60
2018-08-31T17:40:15.472Z,15.43
2018-08-31T17:42:45.809Z,13.97
2018-08-31T17:45:21.184Z,16.30
2018-08-31T17:47:51.212Z,15.53
2018-08-31T17:50:20.801Z,16.13
2018-08-31T17:52:50.979Z,12.97
2018-08-31T17:55:25.555Z,12.27
2018-08-31T17:58:00.680Z,15.40
2018-08-31T18:00:30.090Z,15.90
2018-08-31T18:02:59.614Z,12.90
2018-08-31T18:05:30.929Z,12.63
2018-08-31T18:08:01.768Z,19.67
2018-08-31T18:10:31.200Z,12.70
2018-08-31T18:13:01.459Z,11.70
2018-08-31T18:15:30.823Z,16.10
2018-08-31T18:18:00.141Z,14.27
2018-08-31T18:20:30.640Z,11.40
2018-08-31T18:23:00.314Z,11.00
2018-08-31T18:25:30.896Z,17.20
2018-08-31T18:28:00.343Z,10.20
2018-08-31T18:30:29.868Z,13.00
2018-08-31T18:32:59.508Z,13.03
2018-08-31T18:35:29.185Z,13.63
2018-08-31T18:37:58.867Z,14.30
2018-08-31T18:40:28.717Z,18.10
2018-08-31T18:42:58.553Z,25.23
2018-08-31T18:45:28.149Z,20.33
2018-08-31T18:47:58.061Z,14.57
2018-08-31T18:50:27.519Z,16.10
2018-08-31T18:52:56.868Z,14.33
2018-08-31T18:55:26.376Z,12.73
2018-08-31T18:57:56.329Z,16.47
2018-08-31T19:00:25.836Z,12.70
2018-08-31T19:02:55.472Z,14.47
2018-08-31T19:05:24.989Z,13.73
2018-08-31T19:07:54.790Z,18.03
2018-08-31T19:10:24.215Z,14.63
2018-08-31T19:12:53.932Z,12.20
2018-08-31T19:15:23.448Z,16.53
2018-08-31T19:17:53.924Z,14.70
2018-08-31T19:20:23.690Z,21.20
2018-08-31T19:22:53.265Z,16.27
2018-08-31T19:25:23.471Z,16.90
2018-08-31T19:27:53.587Z,11.50
2018-08-31T19:30:23.025Z,11.57
2018-08-31T19:32:52.683Z,19.57
2018-08-31T19:35:22.411Z,14.00
2018-08-31T19:37:52.477Z,12.67
2018-08-31T19:40:22.617Z,12.27
2018-08-31T19:42:53.686Z,15.00
2018-08-31T19:45:27.497Z,14.70
2018-08-31T19:47:59.094Z,17.43
2018-08-31T19:50:29.725Z,16.67
2018-08-31T19:53:01.598Z,15.50
2018-08-31T19:55:31.386Z,18.30
2018-08-31T19:58:03.012Z,16.07
2018-08-31T20:00:32.805Z,13.60
2018-08-31T20:03:02.383Z,13.10
2018-08-31T20:05:32.324Z,21.90
2018-08-31T20:08:03.139Z,13.33
2018-08-31T20:10:32.708Z,16.27
2018-08-31T20:13:02.477Z,19.63
2018-08-31T20:15:32.639Z,13.13
2018-08-31T20:18:03.114Z,15.70
2018-08-31T20:20:32.642Z,15.47
2018-08-31T20:23:02.608Z,10.67
2018-08-31T20:25:33.251Z,13.83
2018-08-31T20:28:02.816Z,14.33
2018-08-31T20:30:32.534Z,14.03
2018-08-31T20:33:02.947Z,13.63
2018-08-31T20:35:32.827Z,14.83
2018-08-31T20:38:02.784Z,15.27
2018-08-31T20:40:32.125Z,16.57
2018-08-31T20:43:02.034Z,18.13
2018-08-31T20:45:31.558Z,20.50
2018-08-31T20:48:01.165Z,16.60
2018-08-31T20:50:30.550Z,16.83
2018-08-31T20:53:00.214Z,15.40
2018-08-31T20:55:29.566Z,15.20
2018-08-31T20:57:59.224Z,15.40
2018-08-31T21:00:28.532Z,16.33
2018-08-31T21:02:58.260Z,16.23
2018-08-31T21:05:27.651Z,13.47
2018-08-31T21:07:58.752Z,14.80
2018-08-31T21:10:28.385Z,14.90
2018-08-31T21:12:58.193Z,17.53
2018-08-31T21:15:27.606Z,14.47
2018-08-31T21:17:58.436Z,16.10
2018-08-31T21:20:28.138Z,16.83
2018-08-31T21:22:57.388Z,14.60
2018-08-31T21:25:26.877Z,14.07
2018-08-31T21:27:56.333Z,19.47
2018-08-31T21:30:25.931Z,14.60
2018-08-31T21:32:55.953Z,14.87
2018-08-31T21:35:25.932Z,24.80
2018-08-31T21:37:55.224Z,14.80
2018-08-31T21:40:24.576Z,19.17
2018-08-31T21:42:53.992Z,15.43
2018-08-31T21:45:24.955Z,15.57
2018-08-31T21:47:54.759Z,17.80
2018-08-31T21:50:24.675Z,17.73
2018-08-31T21:52:54.200Z,14.40
2018-08-31T21:55:24.455Z,12.30
2018-08-31T21:57:54.921Z,15.30
2018-08-31T22:00:25.142Z,16.30
2018-08-31T22:02:54.608Z,14.70
2018-08-31T22:05:24.052Z,18.77
2018-08-31T22:07:53.673Z,11.97
2018-08-31T22:10:23.261Z,17.20
2018-08-31T22:12:52.756Z,13.60
2018-08-31T22:15:25.464Z,14.17
2018-08-31T22:17:54.930Z,15.80
2018-08-31T22:20:24.869Z,20.43
2018-08-31T22:22:55.198Z,17.30
2018-08-31T22:25:25.721Z,18.17
2018-08-31T22:27:55.372Z,17.23
2018-08-31T22:30:26.036Z,15.97
2018-08-31T22:33:02.225Z,16.07
2018-08-31T22:35:33.152Z,20.80
2018-08-31T22:38:03.165Z,29.40
2018-08-31T22:40:32.919Z,17.43
2018-08-31T22:43:03.484Z,18.00
2018-08-31T22:45:32.950Z,16.50
2018-08-31T22:48:03.413Z,26.33
2018-08-31T22:50:33.380Z,19.73
2018-08-31T22:53:02.770Z,16.07
2018-08-31T22:55:32.070Z,14.57
2018-08-31T22:58:02.609Z,15.13
2018-08-31T23:00:32.840Z,16.33
2018-08-31T23:03:02.158Z,17.20
2018-08-31T23:05:32.787Z,22.50
2018-08-31T23:08:04.046Z,15.50
2018-08-31T23:10:34.328Z,20.73
2018-08-31T23:13:04.239Z,20.37
2018-08-31T23:15:33.939Z,16.00
2018-08-31T23:18:03.337Z,19.70
2018-08-31T23:20:34.504Z,13.63
2018-08-31T23:23:08.985Z,15.63
2018-08-31T23:25:43.675Z,17.03
2018-08-31T23:28:13.768Z,21.83
2018-08-31T23:30:43.900Z,16.57
2018-08-31T23:33:13.193Z,19.83
2018-08-31T23:35:42.519Z,19.57
2018-08-31T23:38:11.980Z,23.90
2018-08-31T23:40:41.824Z,20.47
2018-08-31T23:43:12.046Z,18.57
2018-08-31T23:45:41.728Z,17.90
2018-08-31T23:48:11.770Z,22.73
2018-08-31T23:50:42.097Z,16.37
2018-08-31T23:53:11.516Z,16.80
2018-08-31T23:55:40.755Z,18.20
2018-08-31T23:58:10.159Z,14.93
